Time;durP1;ratioP1;P1;durP2;ratioP2;P2;SDS_P1;SDS_P2;PMS_P1;PMS_P2;Temp;Humidity;BMP_temperature;BMP_pressure;BME280_temperature;BME280_humidity;BME280_pressure;Samples;Min_cycle;Max_cycle;Signal;HPM_P1;HPM_P2
2023/09/20 00:00:09;;;;;;;0.30;0.30;;;;;;;16.79;89.83;98364.16;4117664;28;20210;-47
2023/09/20 00:02:14;;;;;;;1.00;0.45;;;;;;;16.79;89.59;98363.31;4126852;28;20213;-45
2023/09/20 00:04:16;;;;;;;0.40;0.40;;;;;;;16.85;89.32;98359.38;4127064;28;20752;-46
2023/09/20 00:06:18;;;;;;;0.40;0.40;;;;;;;16.78;89.64;98356.97;4127854;28;20206;-46
2023/09/20 00:08:20;;;;;;;0.90;0.77;;;;;;;16.80;89.26;98354.75;4144161;28;20219;-45
2023/09/20 00:10:23;;;;;;;0.32;0.32;;;;;;;16.83;89.30;98354.13;4142901;28;20746;-47
2023/09/20 00:12:24;;;;;;;0.75;0.60;;;;;;;16.84;89.07;98354.97;4127923;28;20229;-45
2023/09/20 00:14:29;;;;;;;2.65;0.50;;;;;;;16.83;89.19;98345.84;4128552;28;20689;-46
2023/09/20 00:16:31;;;;;;;1.02;0.50;;;;;;;16.80;89.60;98348.38;4142929;28;20209;-46
2023/09/20 00:18:32;;;;;;;3.40;0.40;;;;;;;16.82;89.34;98346.16;4130536;28;20726;-45
2023/09/20 00:20:35;;;;;;;0.45;0.45;;;;;;;16.83;89.32;98354.13;4142793;28;20212;-46
2023/09/20 00:22:40;;;;;;;0.32;0.30;;;;;;;16.79;89.67;98347.56;4127957;28;20206;-49
2023/09/20 00:24:41;;;;;;;1.42;0.63;;;;;;;16.87;89.06;98349.69;4141659;28;21136;-48
2023/09/20 00:26:43;;;;;;;0.40;0.40;;;;;;;16.80;89.76;98349.22;4120478;28;20262;-46
2023/09/20 00:28:48;;;;;;;0.30;0.30;;;;;;;16.70;90.03;98343.78;4142135;28;20224;-46
2023/09/20 00:30:52;;;;;;;0.40;0.40;;;;;;;16.72;90.53;98346.25;4142147;28;20229;-47
2023/09/20 00:32:54;;;;;;;5.97;1.13;;;;;;;16.71;89.91;98342.69;4127742;28;20205;-47
2023/09/20 00:34:56;;;;;;;2.60;0.55;;;;;;;16.68;90.64;98345.22;4127999;28;20812;-46
2023/09/20 00:36:58;;;;;;;0.40;0.40;;;;;;;16.74;90.40;98344.84;4142655;28;20205;-46
2023/09/20 00:39:00;;;;;;;0.50;0.50;;;;;;;16.78;90.38;98347.84;4125682;28;20531;-47
2023/09/20 00:41:06;;;;;;;0.40;0.40;;;;;;;16.77;89.96;98343.44;4127948;28;20210;-46
2023/09/20 00:43:11;;;;;;;1.15;0.55;;;;;;;16.72;90.11;98341.56;4128359;28;20697;-46
2023/09/20 00:45:13;;;;;;;0.65;0.35;;;;;;;16.66;90.24;98342.75;4130449;28;20915;-46
2023/09/20 00:47:15;;;;;;;0.52;0.40;;;;;;;16.67;90.48;98336.09;4125966;28;20313;-47
2023/09/20 00:49:18;;;;;;;0.40;0.40;;;;;;;16.63;90.42;98337.78;4127617;28;20696;-46
2023/09/20 00:51:23;;;;;;;0.50;0.50;;;;;;;16.72;90.23;98341.56;4116399;28;20209;-47
2023/09/20 00:53:25;;;;;;;0.52;0.52;;;;;;;16.74;90.35;98342.09;4123395;28;20206;-48
2023/09/20 00:55:29;;;;;;;0.50;0.50;;;;;;;16.68;90.96;98340.50;4135040;28;20232;-47
2023/09/20 00:57:32;;;;;;;0.55;0.47;;;;;;;16.62;91.41;98340.88;4123242;28;20203;-46
2023/09/20 00:59:34;;;;;;;0.50;0.50;;;;;;;16.66;90.76;98339.97;4118897;28;20217;-48
2023/09/20 01:01:39;;;;;;;1.73;0.50;;;;;;;16.60;91.29;98338.38;4116427;28;20643;-48
2023/09/20 01:03:41;;;;;;;0.43;0.40;;;;;;;16.68;90.74;98331.41;4119727;28;20225;-46
2023/09/20 01:05:43;;;;;;;3.38;0.60;;;;;;;16.64;91.33;98336.66;4121076;28;20352;-46
2023/09/20 01:07:46;;;;;;;0.35;0.35;;;;;;;16.61;91.62;98333.66;4121119;28;20214;-46
2023/09/20 01:09:48;;;;;;;0.50;0.50;;;;;;;16.64;91.22;98331.13;4136974;28;20232;-47
2023/09/20 01:11:50;;;;;;;1.30;1.05;;;;;;;16.66;91.40;98333.63;4122411;28;20273;-47
2023/09/20 01:13:52;;;;;;;5.53;0.43;;;;;;;16.57;91.80;98327.09;4139805;28;20481;-47
2023/09/20 01:15:54;;;;;;;0.82;0.52;;;;;;;16.59;91.32;98325.69;4140363;28;20296;-47
2023/09/20 01:17:57;;;;;;;0.68;0.68;;;;;;;16.59;91.21;98331.22;4127037;28;20277;-49
2023/09/20 01:20:01;;;;;;;0.40;0.40;;;;;;;16.67;90.88;98327.81;4126303;28;20632;-46
2023/09/20 01:22:02;;;;;;;0.40;0.40;;;;;;;16.62;91.42;98325.09;4140013;28;20224;-46
2023/09/20 01:24:05;;;;;;;0.40;0.40;;;;;;;16.65;91.35;98313.47;4122588;28;20277;-47
2023/09/20 01:26:07;;;;;;;0.40;0.40;;;;;;;16.61;91.36;98317.94;4119640;28;20220;-45
2023/09/20 01:28:10;;;;;;;0.40;0.40;;;;;;;16.58;91.76;98315.75;4122215;28;20237;-47
2023/09/20 01:30:12;;;;;;;0.55;0.55;;;;;;;16.53;91.94;98321.34;4131035;28;20330;-47
2023/09/20 01:32:14;;;;;;;0.75;0.75;;;;;;;16.56;91.81;98315.22;4130305;28;20249;-46
2023/09/20 01:34:15;;;;;;;0.40;0.40;;;;;;;16.56;91.64;98312.44;4146421;28;20631;-47
2023/09/20 01:36:17;;;;;;;0.50;0.30;;;;;;;16.54;92.13;98311.94;4128796;28;20214;-47
2023/09/20 01:38:20;;;;;;;0.32;0.32;;;;;;;16.59;91.58;98314.63;4121457;28;20260;-47
2023/09/20 01:40:26;;;;;;;0.35;0.28;;;;;;;16.42;92.38;98314.25;4122862;28;20214;-46
2023/09/20 01:42:31;;;;;;;0.50;0.50;;;;;;;16.47;92.14;98300.41;4137955;28;20217;-48
2023/09/20 01:44:37;;;;;;;0.88;0.43;;;;;;;16.47;92.04;98316.97;4124467;28;20225;-48
2023/09/20 01:46:41;;;;;;;0.60;0.40;;;;;;;16.50;91.86;98310.84;4140108;28;20217;-48
2023/09/20 01:48:43;;;;;;;0.40;0.40;;;;;;;16.47;92.03;98311.47;4124444;28;20863;-46
2023/09/20 01:50:47;;;;;;;0.40;0.40;;;;;;;16.42;92.64;98310.69;4124654;28;20865;-48
2023/09/20 01:52:49;;;;;;;0.43;0.43;;;;;;;16.46;92.71;98309.81;4124755;28;20574;-49
2023/09/20 01:54:55;;;;;;;0.40;0.40;;;;;;;16.43;93.07;98312.34;4124519;28;20237;-48
2023/09/20 01:56:56;;;;;;;0.40;0.40;;;;;;;16.38;93.52;98307.69;4126025;28;20222;-46
2023/09/20 01:58:59;;;;;;;0.40;0.40;;;;;;;16.38;92.97;98307.69;4107282;28;20211;-47
2023/09/20 02:01:07;;;;;;;0.90;0.50;;;;;;;16.47;92.68;98302.34;4143072;28;20337;-46
2023/09/20 02:03:14;;;;;;;0.45;0.45;;;;;;;16.52;92.44;98303.13;4121921;28;20284;-46
2023/09/20 02:05:17;;;;;;;0.57;0.50;;;;;;;16.45;93.29;98299.88;4141663;28;20805;-47
2023/09/20 02:07:22;;;;;;;0.63;0.45;;;;;;;16.56;92.46;98298.63;4123346;28;20957;-47
2023/09/20 02:09:24;;;;;;;0.45;0.45;;;;;;;16.49;93.00;98300.94;4124091;28;20217;-48
2023/09/20 02:11:26;;;;;;;0.60;0.57;;;;;;;16.45;93.33;98301.81;4139100;28;20229;-46
2023/09/20 02:13:28;;;;;;;0.35;0.35;;;;;;;16.42;93.82;98303.22;4123817;28;20240;-49
2023/09/20 02:15:31;;;;;;;0.90;0.63;;;;;;;16.45;93.76;98299.88;4136906;28;21730;-48
2023/09/20 02:17:37;;;;;;;1.30;0.50;;;;;;;16.49;93.13;98298.16;4126266;28;20237;-48
2023/09/20 02:19:39;;;;;;;0.30;0.30;;;;;;;16.40;93.57;98288.88;4124435;28;20640;-48
2023/09/20 02:21:41;;;;;;;1.25;0.60;;;;;;;16.45;93.48;98296.28;4123005;28;20599;-46
2023/09/20 02:23:43;;;;;;;0.40;0.40;;;;;;;16.40;93.87;98293.56;4123714;28;20210;-47
2023/09/20 02:25:45;;;;;;;0.30;0.30;;;;;;;16.50;93.66;98287.94;4137910;28;20218;-46
2023/09/20 02:27:52;;;;;;;0.40;0.40;;;;;;;16.37;94.87;98288.63;4124596;28;20212;-47
2023/09/20 02:29:54;;;;;;;0.40;0.40;;;;;;;16.34;95.11;98289.19;4135436;28;20217;-46
2023/09/20 02:31:55;;;;;;;0.30;0.30;;;;;;;16.41;95.36;98290.53;4122107;28;20210;-47
2023/09/20 02:33:57;;;;;;;1.00;0.50;;;;;;;16.29;95.69;98287.31;4123862;28;20297;-46
2023/09/20 02:35:59;;;;;;;1.27;0.52;;;;;;;16.23;95.63;98288.47;4119963;28;20257;-48
2023/09/20 02:38:04;;;;;;;0.65;0.65;;;;;;;16.32;95.67;98292.25;4121693;28;20277;-46
2023/09/20 02:40:07;;;;;;;0.38;0.38;;;;;;;16.18;96.94;98294.06;4139326;28;20288;-46
2023/09/20 02:42:09;;;;;;;0.30;0.30;;;;;;;16.16;96.53;98292.69;4126428;28;20209;-46
2023/09/20 02:44:12;;;;;;;0.32;0.30;;;;;;;16.10;96.59;98289.16;4128845;28;20210;-47
2023/09/20 02:46:14;;;;;;;0.40;0.40;;;;;;;16.03;97.33;98285.09;4127588;28;20689;-46
2023/09/20 02:48:17;;;;;;;0.50;0.50;;;;;;;16.03;97.43;98293.38;4127247;28;20209;-46
2023/09/20 02:50:22;;;;;;;0.40;0.40;;;;;;;16.17;96.50;98286.88;4128949;28;20276;-47
2023/09/20 02:52:25;;;;;;;0.45;0.40;;;;;;;16.10;96.75;98282.81;4118088;28;20226;-46
2023/09/20 02:54:28;;;;;;;0.47;0.47;;;;;;;16.05;97.18;98280.94;4118970;28;20233;-46
2023/09/20 02:56:30;;;;;;;0.60;0.55;;;;;;;16.15;96.30;98291.88;4139464;28;20590;-47
2023/09/20 02:58:32;;;;;;;0.65;0.50;;;;;;;16.12;96.28;98281.41;4137340;28;20661;-47
2023/09/20 03:00:34;;;;;;;0.38;0.30;;;;;;;16.13;96.33;98277.53;4121994;28;21208;-46
2023/09/20 03:02:36;;;;;;;0.50;0.50;;;;;;;16.06;96.72;98277.06;4123865;28;20206;-47
2023/09/20 03:04:38;;;;;;;0.52;0.52;;;;;;;16.06;96.72;98271.53;4139407;28;20229;-47
2023/09/20 03:06:40;;;;;;;0.35;0.35;;;;;;;16.06;96.87;98260.50;4140670;28;20221;-46
2023/09/20 03:08:44;;;;;;;1.05;0.60;;;;;;;16.06;96.82;98270.69;4124436;28;20206;-47
2023/09/20 03:10:46;;;;;;;0.38;0.38;;;;;;;16.06;97.04;98271.53;4125511;28;20585;-46
2023/09/20 03:12:51;;;;;;;0.75;0.38;;;;;;;16.09;97.29;98259.91;4124969;28;20237;-47
2023/09/20 03:14:53;;;;;;;1.25;0.40;;;;;;;16.03;97.46;98265.78;4139610;28;20585;-49
2023/09/20 03:16:55;;;;;;;0.40;0.38;;;;;;;16.12;97.29;98266.78;4127746;28;20260;-46
2023/09/20 03:18:58;;;;;;;0.40;0.40;;;;;;;16.06;97.63;98268.78;4136533;28;20217;-46
2023/09/20 03:21:10;;;;;;;1.17;0.60;;;;;;;16.01;97.78;98263.31;4139533;28;20209;-47
2023/09/20 03:23:13;;;;;;;0.40;0.40;;;;;;;15.95;97.85;98267.22;4141646;28;20272;-46
2023/09/20 03:25:17;;;;;;;0.77;0.77;;;;;;;15.91;97.98;98263.38;4116823;28;20230;-48
2023/09/20 03:27:18;;;;;;;0.65;0.40;;;;;;;15.90;98.36;98253.47;4144246;28;20206;-47
2023/09/20 03:29:20;;;;;;;0.45;0.45;;;;;;;15.91;98.12;98257.88;4144120;28;20213;-47
2023/09/20 03:31:22;;;;;;;0.60;0.52;;;;;;;16.00;98.04;98252.53;4123202;28;20221;-47
2023/09/20 03:33:24;;;;;;;0.40;0.40;;;;;;;15.95;98.54;98252.63;4122878;28;20252;-47
2023/09/20 03:35:29;;;;;;;0.65;0.60;;;;;;;15.83;98.73;98249.41;4137704;28;20308;-49
2023/09/20 03:37:32;;;;;;;0.40;0.40;;;;;;;15.91;98.58;98241.31;4122962;28;20214;-48
2023/09/20 03:39:37;;;;;;;0.40;0.40;;;;;;;15.87;98.54;98256.81;4138150;28;20205;-49
2023/09/20 03:41:40;;;;;;;0.40;0.40;;;;;;;15.84;98.75;98262.91;4136191;28;20217;-48
2023/09/20 03:43:45;;;;;;;0.70;0.65;;;;;;;15.80;98.78;98261.84;4133968;28;21214;-46
2023/09/20 03:45:47;;;;;;;0.95;0.50;;;;;;;15.78;99.01;98264.09;4132215;28;20797;-47
2023/09/20 03:47:53;;;;;;;0.95;0.85;;;;;;;15.72;99.23;98243.16;4121467;28;20947;-48
2023/09/20 03:49:55;;;;;;;0.40;0.40;;;;;;;15.71;99.14;98246.22;4120042;28;20220;-46
2023/09/20 03:52:00;;;;;;;0.50;0.50;;;;;;;15.77;99.45;98267.94;4135650;28;20233;-48
2023/09/20 03:54:02;;;;;;;0.40;0.40;;;;;;;15.68;99.56;98261.41;4137830;28;20205;-48
2023/09/20 03:56:05;;;;;;;0.40;0.40;;;;;;;15.64;99.89;98274.09;4120788;28;20306;-46
2023/09/20 03:58:07;;;;;;;0.40;0.40;;;;;;;15.63;100.00;98280.75;4119214;28;21003;-48
2023/09/20 04:00:28;;;;;;;0.52;0.50;;;;;;;15.60;99.98;98273.06;4137870;28;20210;-47
2023/09/20 04:02:30;;;;;;;0.40;0.40;;;;;;;15.57;100.00;98268.09;4135972;28;20247;-47
2023/09/20 04:04:34;;;;;;;0.50;0.50;;;;;;;15.55;100.00;98264.81;4116657;28;20357;-47
2023/09/20 04:06:36;;;;;;;0.60;0.40;;;;;;;15.53;100.00;98267.03;4118333;28;20214;-49
2023/09/20 04:08:38;;;;;;;0.68;0.68;;;;;;;15.51;100.00;98257.41;4119054;28;20263;-48
2023/09/20 04:10:42;;;;;;;0.50;0.50;;;;;;;15.39;100.00;98262.47;4133468;28;20217;-46
2023/09/20 04:12:47;;;;;;;1.05;0.60;;;;;;;15.42;100.00;98264.66;4118704;28;20306;-46
2023/09/20 04:14:51;;;;;;;0.90;0.32;;;;;;;15.37;100.00;98250.91;4133872;28;20225;-46
2023/09/20 04:16:54;;;;;;;0.50;0.50;;;;;;;15.35;100.00;98242.91;4122154;28;22382;-47
2023/09/20 04:18:56;;;;;;;0.63;0.45;;;;;;;15.42;100.00;98237.88;4119151;28;20209;-50
2023/09/20 04:20:57;;;;;;;0.50;0.50;;;;;;;15.34;100.00;98241.28;4121297;28;20611;-47
2023/09/20 04:22:59;;;;;;;0.60;0.60;;;;;;;15.28;100.00;98231.34;4135887;28;20300;-47
2023/09/20 04:25:01;;;;;;;0.38;0.38;;;;;;;15.39;100.00;98232.97;4123717;28;20249;-47
2023/09/20 04:27:03;;;;;;;0.55;0.55;;;;;;;15.43;100.00;98234.03;4140473;28;20287;-46
2023/09/20 04:29:06;;;;;;;0.88;0.60;;;;;;;15.03;100.00;98234.28;4120399;28;20292;-48
2023/09/20 04:31:08;;;;;;;0.70;0.70;;;;;;;15.09;100.00;98240.59;4119408;28;20816;-47
2023/09/20 04:33:10;;;;;;;0.50;0.50;;;;;;;14.90;100.00;98240.41;4141055;28;20249;-48
2023/09/20 04:35:12;;;;;;;0.85;0.85;;;;;;;14.84;100.00;98249.00;4137896;28;20232;-46
2023/09/20 04:37:16;;;;;;;0.50;0.50;;;;;;;14.86;100.00;98244.88;4134345;28;20862;-46
2023/09/20 04:39:20;;;;;;;0.68;0.68;;;;;;;14.92;100.00;98238.22;4126871;28;20213;-46
2023/09/20 04:41:21;;;;;;;0.50;0.50;;;;;;;14.96;100.00;98233.78;4121032;28;20260;-47
2023/09/20 04:43:23;;;;;;;0.60;0.60;;;;;;;15.02;100.00;98243.66;4134171;28;20294;-47
2023/09/20 04:45:25;;;;;;;0.95;0.70;;;;;;;15.12;100.00;98240.84;4140244;28;20265;-46
2023/09/20 04:47:28;;;;;;;1.45;1.02;;;;;;;15.18;100.00;98231.44;4143254;28;20209;-46
2023/09/20 04:49:30;;;;;;;2.95;0.90;;;;;;;15.14;100.00;98237.78;4136493;28;20255;-47
2023/09/20 04:51:32;;;;;;;1.63;0.63;;;;;;;15.16;100.00;98239.16;4136560;28;20236;-47
2023/09/20 04:53:39;;;;;;;3.90;0.63;;;;;;;15.16;100.00;98239.16;4124011;28;20241;-47
2023/09/20 04:55:40;;;;;;;0.50;0.50;;;;;;;15.16;100.00;98244.66;4120009;28;20234;-46
2023/09/20 04:57:43;;;;;;;0.43;0.43;;;;;;;15.26;100.00;98238.25;4122856;28;20209;-47
2023/09/20 04:59:45;;;;;;;0.88;0.88;;;;;;;15.11;100.00;98236.41;4125410;28;20206;-47
2023/09/20 05:01:47;;;;;;;0.50;0.50;;;;;;;15.03;100.00;98238.97;4138958;28;20296;-47
2023/09/20 05:03:50;;;;;;;0.90;0.90;;;;;;;15.17;100.00;98240.00;4124730;28;20221;-47
2023/09/20 05:05:53;;;;;;;0.55;0.55;;;;;;;15.06;100.00;98239.22;4126893;28;20662;-46
2023/09/20 05:07:56;;;;;;;0.70;0.70;;;;;;;15.03;100.00;98237.03;4135338;28;20213;-46
2023/09/20 05:10:00;;;;;;;0.40;0.40;;;;;;;15.05;100.00;98232.09;4124369;28;20209;-46
2023/09/20 05:12:04;;;;;;;0.63;0.50;;;;;;;15.01;100.00;98236.50;4123241;28;20250;-46
2023/09/20 05:14:05;;;;;;;1.33;1.25;;;;;;;15.01;100.00;98241.19;4127969;28;20214;-46
2023/09/20 05:16:08;;;;;;;0.57;0.50;;;;;;;15.05;100.00;98243.09;4123819;28;20285;-46
2023/09/20 05:18:11;;;;;;;1.17;0.60;;;;;;;15.01;100.00;98247.53;4117425;28;20216;-46
2023/09/20 05:20:13;;;;;;;0.68;0.68;;;;;;;15.04;100.00;98246.94;4128475;28;20202;-47
2023/09/20 05:22:15;;;;;;;5.88;0.60;;;;;;;15.04;100.00;98249.69;4140322;28;20237;-48
2023/09/20 05:24:17;;;;;;;1.45;0.75;;;;;;;15.13;100.00;98256.28;4122423;28;20235;-48
2023/09/20 05:26:19;;;;;;;0.70;0.60;;;;;;;15.04;100.00;98263.47;4122275;28;20210;-46
2023/09/20 05:28:21;;;;;;;1.70;0.80;;;;;;;14.92;100.00;98254.75;4134551;28;20217;-46
2023/09/20 05:30:24;;;;;;;0.60;0.60;;;;;;;15.02;100.00;98265.72;4116791;28;20207;-46
2023/09/20 05:32:26;;;;;;;0.35;0.35;;;;;;;15.07;100.00;98251.06;4132719;28;20252;-48
2023/09/20 05:34:28;;;;;;;1.17;0.60;;;;;;;15.14;100.00;98238.63;4138327;28;20229;-48
2023/09/20 05:36:31;;;;;;;0.50;0.50;;;;;;;15.05;100.00;98239.50;4135812;28;20680;-49
2023/09/20 05:38:33;;;;;;;0.50;0.40;;;;;;;15.02;100.00;98232.63;4105689;28;20210;-47
2023/09/20 05:40:35;;;;;;;0.70;0.60;;;;;;;14.91;100.00;98244.81;4139335;28;20214;-46
2023/09/20 05:42:37;;;;;;;0.47;0.40;;;;;;;14.91;100.00;98242.06;4120982;28;21071;-47
2023/09/20 05:44:40;;;;;;;1.00;0.60;;;;;;;15.00;100.00;98245.88;4123280;28;20234;-47
2023/09/20 05:46:42;;;;;;;0.60;0.60;;;;;;;14.98;100.00;98256.38;4124165;28;20241;-45
2023/09/20 05:48:44;;;;;;;1.65;0.80;;;;;;;15.07;100.00;98251.91;4125065;28;20695;-48
2023/09/20 05:50:50;;;;;;;0.30;0.30;;;;;;;15.16;100.00;98249.38;4136417;28;20217;-48
2023/09/20 05:52:52;;;;;;;0.40;0.40;;;;;;;15.11;100.00;98252.97;4137569;28;20202;-46
2023/09/20 05:54:55;;;;;;;0.40;0.40;;;;;;;15.16;100.00;98244.66;4122661;28;21038;-47
2023/09/20 05:56:59;;;;;;;1.58;0.60;;;;;;;15.11;100.00;98241.13;4134644;28;20210;-46
2023/09/20 05:59:01;;;;;;;7.93;1.10;;;;;;;15.25;100.00;98253.16;4116717;28;20765;-46
2023/09/20 06:01:03;;;;;;;9.32;1.23;;;;;;;15.16;100.00;98243.84;4119758;28;20206;-48
2023/09/20 06:03:05;;;;;;;0.93;0.85;;;;;;;15.12;100.00;98256.56;4128104;28;20691;-46
2023/09/20 06:05:09;;;;;;;0.60;0.55;;;;;;;15.11;100.00;98247.44;4142209;28;20692;-48
2023/09/20 06:07:11;;;;;;;0.52;0.52;;;;;;;15.15;100.00;98243.03;4119966;28;20302;-47
2023/09/20 06:09:14;;;;;;;0.90;0.60;;;;;;;15.22;100.00;98243.53;4134994;28;20673;-46
2023/09/20 06:11:17;;;;;;;1.02;0.57;;;;;;;15.21;100.00;98241.88;4135488;28;20210;-45
2023/09/20 06:13:19;;;;;;;6.13;1.02;;;;;;;15.26;100.00;98235.50;4133903;28;20220;-47
2023/09/20 06:15:21;;;;;;;0.57;0.57;;;;;;;15.28;100.00;98230.53;4134628;28;20332;-46
2023/09/20 06:17:23;;;;;;;0.68;0.55;;;;;;;15.28;100.00;98236.88;4133067;28;20241;-47
2023/09/20 06:19:30;;;;;;;0.93;0.60;;;;;;;15.26;100.00;98225.31;4136035;28;20224;-46
2023/09/20 06:21:38;;;;;;;2.80;1.13;;;;;;;15.20;100.00;98229.22;4130276;28;20669;-47
2023/09/20 06:23:40;;;;;;;0.88;0.55;;;;;;;15.30;100.00;98234.63;4129320;28;20295;-45
2023/09/20 06:25:42;;;;;;;0.85;0.85;;;;;;;15.37;100.00;98235.16;4128122;28;20230;-45
2023/09/20 06:27:50;;;;;;;1.30;1.20;;;;;;;15.45;100.00;98237.34;4126308;28;20211;-45
2023/09/20 06:29:53;;;;;;;0.80;0.63;;;;;;;15.49;100.00;98226.53;4123648;28;20233;-46
2023/09/20 06:31:55;;;;;;;0.80;0.80;;;;;;;15.49;100.00;98227.34;4126862;28;20293;-45
2023/09/20 06:33:56;;;;;;;1.05;0.50;;;;;;;15.53;100.00;98217.41;4128469;28;20210;-45
2023/09/20 06:35:59;;;;;;;0.70;0.70;;;;;;;15.63;100.00;98214.53;4112949;28;20221;-46
2023/09/20 06:38:02;;;;;;;0.82;0.80;;;;;;;15.66;100.00;98222.25;4144505;28;20213;-45
2023/09/20 06:40:05;;;;;;;0.95;0.85;;;;;;;15.57;100.00;98218.44;4142735;28;20289;-45
2023/09/20 06:42:08;;;;;;;0.88;0.80;;;;;;;15.56;100.00;98222.31;4120488;28;20858;-47
2023/09/20 06:44:12;;;;;;;1.02;0.75;;;;;;;15.63;100.00;98222.00;4128626;28;20656;-46
2023/09/20 06:46:14;;;;;;;1.00;0.68;;;;;;;15.62;100.00;98215.66;4121329;28;20242;-46
2023/09/20 06:48:20;;;;;;;0.75;0.60;;;;;;;15.76;100.00;98224.09;4128454;28;20211;-46
2023/09/20 06:50:25;;;;;;;0.65;0.65;;;;;;;15.87;100.00;98220.94;4128517;28;20220;-45
2023/09/20 06:52:27;;;;;;;3.25;0.65;;;;;;;16.06;100.00;98221.84;4143101;28;20225;-46
2023/09/20 06:54:29;;;;;;;0.50;0.50;;;;;;;16.13;100.00;98222.31;4127546;28;20233;-45
2023/09/20 06:56:32;;;;;;;0.50;0.50;;;;;;;16.21;100.00;98218.91;4127453;28;20206;-45
2023/09/20 06:58:34;;;;;;;3.92;0.68;;;;;;;16.26;100.00;98216.09;4130031;28;20209;-45
2023/09/20 07:00:36;;;;;;;0.73;0.40;;;;;;;16.41;100.00;98212.34;4127864;28;20221;-45
2023/09/20 07:02:38;;;;;;;1.23;1.13;;;;;;;16.52;99.37;98214.72;4124945;28;20221;-46
2023/09/20 07:04:40;;;;;;;0.70;0.43;;;;;;;16.52;100.00;98211.97;4125555;28;20230;-46
2023/09/20 07:06:42;;;;;;;0.70;0.57;;;;;;;16.59;99.29;98209.66;4142675;28;20236;-46
2023/09/20 07:08:45;;;;;;;0.68;0.68;;;;;;;16.73;97.45;98216.09;4142598;28;20632;-45
2023/09/20 07:10:50;;;;;;;1.33;0.40;;;;;;;16.70;98.24;98224.97;4141775;28;20210;-46
2023/09/20 07:12:55;;;;;;;0.55;0.45;;;;;;;16.79;97.74;98225.97;4126679;28;20693;-45
2023/09/20 07:14:57;;;;;;;4.07;0.70;;;;;;;17.00;97.88;98219.03;4143278;28;20235;-46
2023/09/20 07:17:00;;;;;;;1.75;0.50;;;;;;;17.17;99.62;98222.91;4140525;28;20237;-45
2023/09/20 07:19:05;;;;;;;2.72;0.50;;;;;;;17.16;97.21;98226.81;4125330;28;20210;-46
2023/09/20 07:21:07;;;;;;;0.70;0.60;;;;;;;17.11;96.24;98218.56;4125338;28;20216;-45
2023/09/20 07:23:12;;;;;;;0.63;0.50;;;;;;;17.26;96.81;98221.09;4137788;28;20655;-46
2023/09/20 07:25:21;;;;;;;1.75;0.52;;;;;;;17.28;96.13;98224.41;4126889;28;20284;-46
2023/09/20 07:27:23;;;;;;;3.17;0.75;;;;;;;17.36;94.54;98231.19;4127944;28;20198;-46
2023/09/20 07:29:25;;;;;;;0.35;0.30;;;;;;;17.47;94.24;98229.94;4128062;28;20670;-47
2023/09/20 07:31:28;;;;;;;0.73;0.73;;;;;;;17.46;93.96;98231.06;4143027;28;20304;-45
2023/09/20 07:33:31;;;;;;;0.40;0.40;;;;;;;17.43;93.11;98226.13;4126818;28;20221;-45
2023/09/20 07:35:39;;;;;;;0.65;0.40;;;;;;;17.48;92.27;98217.75;4142081;28;20225;-45
2023/09/20 07:37:43;;;;;;;0.68;0.40;;;;;;;17.55;91.77;98218.19;4117848;28;20240;-45
2023/09/20 07:39:46;;;;;;;5.40;1.15;;;;;;;17.63;92.22;98223.88;4143708;28;20213;-46
2023/09/20 07:41:52;;;;;;;1.55;0.57;;;;;;;17.85;93.00;98215.72;4127396;28;20253;-46
2023/09/20 07:43:54;;;;;;;0.60;0.60;;;;;;;18.19;92.78;98220.91;4127938;28;20285;-46
2023/09/20 07:46:00;;;;;;;3.00;0.60;;;;;;;18.62;89.75;98213.97;4144190;28;20288;-45
2023/09/20 07:48:04;;;;;;;1.23;0.60;;;;;;;18.68;83.42;98221.03;4124355;28;20210;-46
2023/09/20 07:50:07;;;;;;;0.70;0.35;;;;;;;18.52;83.02;98225.28;4126968;28;20229;-46
2023/09/20 07:52:11;;;;;;;1.17;1.05;;;;;;;18.38;84.19;98219.72;4140640;28;20253;-46
2023/09/20 07:54:14;;;;;;;1.00;0.47;;;;;;;18.66;85.05;98217.78;4140276;28;20210;-46
2023/09/20 07:56:16;;;;;;;0.30;0.30;;;;;;;18.45;82.46;98217.34;4141705;28;20657;-45
2023/09/20 07:58:19;;;;;;;1.30;0.95;;;;;;;18.56;82.10;98220.75;4123142;28;20214;-45
2023/09/20 08:00:22;;;;;;;1.30;0.60;;;;;;;18.97;85.16;98229.88;4116584;28;20681;-45
2023/09/20 08:02:24;;;;;;;2.03;0.60;;;;;;;19.57;80.97;98229.28;4124018;28;20210;-46
2023/09/20 08:04:26;;;;;;;0.60;0.60;;;;;;;19.85;78.02;98224.44;4140014;28;20775;-46
2023/09/20 08:06:32;;;;;;;4.57;0.80;;;;;;;19.82;76.84;98214.75;4137369;28;20268;-45
2023/09/20 08:08:35;;;;;;;0.60;0.60;;;;;;;20.19;77.50;98210.75;4123200;28;20257;-45
2023/09/20 08:10:38;;;;;;;0.40;0.40;;;;;;;20.23;74.33;98209.81;4125293;28;20229;-45
2023/09/20 08:12:39;;;;;;;0.73;0.50;;;;;;;20.22;74.50;98208.16;4127734;28;20238;-45
2023/09/20 08:14:41;;;;;;;1.48;0.40;;;;;;;20.52;73.65;98209.28;4126124;28;20225;-45
2023/09/20 08:16:43;;;;;;;0.55;0.50;;;;;;;20.50;73.60;98206.00;4123758;28;20213;-46
2023/09/20 08:21:16;;;;;;;2.83;0.50;;;;;;;20.57;74.41;98206.34;4124778;28;20221;-46
2023/09/20 09:01:23;;;;;;;1.27;0.40;;;;;;;21.95;67.22;98212.56;4122842;28;20201;-46
2023/09/20 09:03:25;;;;;;;1.00;0.40;;;;;;;21.87;66.65;98210.63;4142222;28;20284;-46
2023/09/20 09:05:29;;;;;;;0.93;0.77;;;;;;;21.60;67.99;98210.94;4130836;28;20240;-46
2023/09/20 09:07:31;;;;;;;2.08;0.82;;;;;;;21.68;68.05;98207.34;4126108;28;20206;-46
2023/09/20 09:09:33;;;;;;;0.30;0.30;;;;;;;21.71;67.65;98212.28;4123514;28;20220;-46
2023/09/20 09:11:35;;;;;;;0.30;0.30;;;;;;;21.76;68.66;98212.94;4120526;28;20627;-47
2023/09/20 09:13:37;;;;;;;0.50;0.35;;;;;;;22.13;66.79;98208.59;4123733;28;20264;-46
2023/09/20 09:15:40;;;;;;;1.00;0.50;;;;;;;22.19;65.87;98210.06;4139700;28;20716;-45
2023/09/20 09:17:46;;;;;;;0.93;0.52;;;;;;;22.11;65.71;98196.97;4125248;28;20283;-45
2023/09/20 09:19:48;;;;;;;0.45;0.30;;;;;;;22.22;65.33;98209.38;4124978;28;20210;-45
2023/09/20 09:21:50;;;;;;;0.28;0.22;;;;;;;22.21;65.95;98199.38;4140133;28;20357;-45
2023/09/20 09:23:52;;;;;;;0.52;0.40;;;;;;;22.64;64.90;98197.28;4125339;28;20204;-46
2023/09/20 09:25:54;;;;;;;0.93;0.93;;;;;;;23.01;64.29;98199.19;4143167;28;20241;-47
2023/09/20 09:27:55;;;;;;;0.80;0.60;;;;;;;23.41;63.86;98194.81;4120577;28;20617;-46
2023/09/20 09:29:57;;;;;;;0.73;0.50;;;;;;;23.90;62.79;98191.94;4129366;28;20233;-46
2023/09/20 09:32:04;;;;;;;0.40;0.40;;;;;;;23.78;60.60;98189.88;4132990;28;20216;-45
2023/09/20 09:34:07;;;;;;;0.77;0.35;;;;;;;24.19;59.97;98189.81;4144570;28;20259;-47
2023/09/20 09:36:12;;;;;;;0.20;0.20;;;;;;;24.26;60.33;98190.06;4145519;28;20304;-46
2023/09/20 09:38:24;;;;;;;0.40;0.40;;;;;;;23.94;60.59;98182.50;4127557;28;20209;-46
2023/09/20 09:40:28;;;;;;;0.88;0.88;;;;;;;23.49;60.52;98185.53;4124882;28;20613;-46
2023/09/20 09:42:31;;;;;;;2.33;1.30;;;;;;;23.34;60.57;98187.00;4131239;28;20205;-46
2023/09/20 09:44:51;;;;;;;3.63;1.88;;;;;;;22.89;62.48;98190.72;4128793;28;20225;-46
2023/09/20 09:46:54;;;;;;;0.57;0.50;;;;;;;23.21;62.44;98190.06;4130293;28;20232;-46
2023/09/20 09:48:56;;;;;;;3.72;0.50;;;;;;;23.08;62.18;98193.88;4141009;28;20344;-46
2023/09/20 09:51:01;;;;;;;3.60;0.60;;;;;;;22.42;63.21;98177.97;4124102;28;20214;-46
2023/09/20 09:53:05;;;;;;;0.30;0.30;;;;;;;22.39;63.01;98178.66;4125887;28;20229;-45
2023/09/20 09:55:07;;;;;;;0.30;0.30;;;;;;;22.31;64.18;98171.16;4144363;28;20649;-45
2023/09/20 09:57:10;;;;;;;1.17;0.40;;;;;;;22.37;64.69;98167.81;4126701;28;20931;-45
2023/09/20 09:59:13;;;;;;;0.30;0.30;;;;;;;22.30;64.53;98163.94;4128123;28;20716;-46
2023/09/20 10:01:15;;;;;;;0.20;0.20;;;;;;;22.21;64.83;98165.94;4143300;28;20751;-46
2023/09/20 10:03:29;;;;;;;0.40;0.40;;;;;;;22.46;65.31;98167.81;4130050;28;20208;-46
2023/09/20 10:05:32;;;;;;;0.55;0.55;;;;;;;22.36;65.54;98163.41;4129438;28;20246;-46
2023/09/20 10:07:40;;;;;;;0.25;0.22;;;;;;;22.53;65.47;98168.13;4127830;28;20632;-45
2023/09/20 10:09:48;;;;;;;0.50;0.40;;;;;;;22.53;65.22;98162.53;4126889;28;20209;-45
2023/09/20 10:11:50;;;;;;;1.13;0.85;;;;;;;22.88;64.21;98152.81;4124690;28;20258;-45
2023/09/20 10:13:52;;;;;;;0.35;0.25;;;;;;;23.27;62.86;98152.38;4124462;28;20225;-45
2023/09/20 10:15:55;;;;;;;2.05;0.63;;;;;;;23.11;63.51;98159.72;4127430;28;20299;-46
2023/09/20 10:17:59;;;;;;;0.80;0.47;;;;;;;22.67;62.89;98149.16;4124384;28;20210;-45